sensor_id;sensor_type;location;lat;lon;timestamp;P1;durP1;ratioP1;P2;durP2;ratioP2
10275;SDS011;5183;51.190;6.820;2023-02-02T00:01:22;20.03;;;6.03;;
10275;SDS011;5183;51.190;6.820;2023-02-02T00:03:50;19.97;;;6.00;;
10275;SDS011;5183;51.190;6.820;2023-02-02T00:06:19;20.07;;;6.80;;
10275;SDS011;5183;51.190;6.820;2023-02-02T00:08:46;22.20;;;6.37;;
10275;SDS011;5183;51.190;6.820;2023-02-02T00:11:13;21.30;;;7.33;;
10275;SDS011;5183;51.190;6.820;2023-02-02T00:13:41;19.37;;;6.13;;
10275;SDS011;5183;51.190;6.820;2023-02-02T00:16:25;20.23;;;6.50;;
10275;SDS011;5183;51.190;6.820;2023-02-02T00:19:01;18.43;;;6.30;;
10275;SDS011;5183;51.190;6.820;2023-02-02T00:21:30;22.00;;;6.43;;
10275;SDS011;5183;51.190;6.820;2023-02-02T00:23:57;22.30;;;6.43;;
10275;SDS011;5183;51.190;6.820;2023-02-02T00:26:25;18.77;;;6.53;;
10275;SDS011;5183;51.190;6.820;2023-02-02T00:28:52;21.03;;;6.40;;
10275;SDS011;5183;51.190;6.820;2023-02-02T00:31:19;22.97;;;6.90;;
10275;SDS011;5183;51.190;6.820;2023-02-02T00:33:47;21.90;;;6.27;;
10275;SDS011;5183;51.190;6.820;2023-02-02T00:36:14;19.53;;;6.80;;
10275;SDS011;5183;51.190;6.820;2023-02-02T00:38:43;25.07;;;6.23;;
10275;SDS011;5183;51.190;6.820;2023-02-02T00:41:10;21.43;;;6.37;;
10275;SDS011;5183;51.190;6.820;2023-02-02T00:43:37;16.73;;;6.20;;
10275;SDS011;5183;51.190;6.820;2023-02-02T00:46:04;17.77;;;6.20;;
10275;SDS011;5183;51.190;6.820;2023-02-02T00:48:31;24.10;;;6.60;;
10275;SDS011;5183;51.190;6.820;2023-02-02T00:50:58;20.80;;;6.03;;
10275;SDS011;5183;51.190;6.820;2023-02-02T00:53:26;20.93;;;6.60;;
10275;SDS011;5183;51.190;6.820;2023-02-02T00:55:54;22.03;;;6.37;;
10275;SDS011;5183;51.190;6.820;2023-02-02T00:58:21;30.47;;;7.23;;
10275;SDS011;5183;51.190;6.820;2023-02-02T01:00:48;22.40;;;6.37;;
10275;SDS011;5183;51.190;6.820;2023-02-02T01:03:16;23.50;;;6.87;;
10275;SDS011;5183;51.190;6.820;2023-02-02T01:05:43;21.37;;;7.00;;
10275;SDS011;5183;51.190;6.820;2023-02-02T01:08:10;20.63;;;6.50;;
10275;SDS011;5183;51.190;6.820;2023-02-02T01:10:37;25.03;;;7.17;;
10275;SDS011;5183;51.190;6.820;2023-02-02T01:13:05;29.07;;;7.53;;
10275;SDS011;5183;51.190;6.820;2023-02-02T01:15:32;21.93;;;6.20;;
10275;SDS011;5183;51.190;6.820;2023-02-02T01:18:00;26.30;;;7.03;;
10275;SDS011;5183;51.190;6.820;2023-02-02T01:20:27;19.10;;;6.33;;
10275;SDS011;5183;51.190;6.820;2023-02-02T01:22:55;27.10;;;6.83;;
10275;SDS011;5183;51.190;6.820;2023-02-02T01:25:22;24.90;;;6.13;;
10275;SDS011;5183;51.190;6.820;2023-02-02T01:27:51;25.27;;;6.90;;
10275;SDS011;5183;51.190;6.820;2023-02-02T01:30:20;22.93;;;5.90;;
10275;SDS011;5183;51.190;6.820;2023-02-02T01:32:47;22.13;;;6.33;;
10275;SDS011;5183;51.190;6.820;2023-02-02T01:35:14;18.80;;;6.57;;
10275;SDS011;5183;51.190;6.820;2023-02-02T01:37:41;18.03;;;6.00;;
10275;SDS011;5183;51.190;6.820;2023-02-02T01:40:09;22.73;;;6.00;;
10275;SDS011;5183;51.190;6.820;2023-02-02T01:42:36;25.17;;;6.60;;
10275;SDS011;5183;51.190;6.820;2023-02-02T01:45:17;20.80;;;6.63;;
10275;SDS011;5183;51.190;6.820;2023-02-02T01:47:47;18.23;;;6.53;;
10275;SDS011;5183;51.190;6.820;2023-02-02T01:50:16;22.13;;;6.10;;
10275;SDS011;5183;51.190;6.820;2023-02-02T01:52:45;21.73;;;6.57;;
10275;SDS011;5183;51.190;6.820;2023-02-02T01:55:13;18.33;;;6.03;;
10275;SDS011;5183;51.190;6.820;2023-02-02T01:57:42;18.67;;;5.70;;
10275;SDS011;5183;51.190;6.820;2023-02-02T02:00:12;16.93;;;5.50;;
10275;SDS011;5183;51.190;6.820;2023-02-02T02:02:40;19.47;;;5.70;;
10275;SDS011;5183;51.190;6.820;2023-02-02T02:05:09;18.17;;;6.00;;
10275;SDS011;5183;51.190;6.820;2023-02-02T02:07:37;20.47;;;6.37;;
10275;SDS011;5183;51.190;6.820;2023-02-02T02:10:05;20.27;;;6.10;;
10275;SDS011;5183;51.190;6.820;2023-02-02T02:12:32;19.80;;;5.57;;
10275;SDS011;5183;51.190;6.820;2023-02-02T02:14:59;21.90;;;6.90;;
10275;SDS011;5183;51.190;6.820;2023-02-02T02:17:47;20.07;;;6.87;;
10275;SDS011;5183;51.190;6.820;2023-02-02T02:20:34;21.73;;;6.47;;
10275;SDS011;5183;51.190;6.820;2023-02-02T02:23:32;26.63;;;6.47;;
10275;SDS011;5183;51.190;6.820;2023-02-02T02:26:29;18.33;;;7.53;;
10275;SDS011;5183;51.190;6.820;2023-02-02T02:29:03;22.80;;;7.47;;
10275;SDS011;5183;51.190;6.820;2023-02-02T02:31:54;22.23;;;7.53;;
10275;SDS011;5183;51.190;6.820;2023-02-02T02:34:25;23.90;;;7.67;;
10275;SDS011;5183;51.190;6.820;2023-02-02T02:36:56;22.33;;;8.20;;
10275;SDS011;5183;51.190;6.820;2023-02-02T02:39:26;23.83;;;8.17;;
10275;SDS011;5183;51.190;6.820;2023-02-02T02:41:56;22.30;;;8.00;;
10275;SDS011;5183;51.190;6.820;2023-02-02T02:44:25;24.03;;;8.20;;
10275;SDS011;5183;51.190;6.820;2023-02-02T02:46:54;23.13;;;7.23;;
10275;SDS011;5183;51.190;6.820;2023-02-02T02:49:22;21.47;;;7.00;;
10275;SDS011;5183;51.190;6.820;2023-02-02T02:51:49;26.40;;;7.83;;
10275;SDS011;5183;51.190;6.820;2023-02-02T02:54:18;27.37;;;7.30;;
10275;SDS011;5183;51.190;6.820;2023-02-02T02:56:51;20.10;;;7.93;;
10275;SDS011;5183;51.190;6.820;2023-02-02T02:59:21;24.73;;;6.73;;
10275;SDS011;5183;51.190;6.820;2023-02-02T03:01:53;21.80;;;7.30;;
10275;SDS011;5183;51.190;6.820;2023-02-02T03:04:26;26.00;;;6.97;;
10275;SDS011;5183;51.190;6.820;2023-02-02T03:06:56;29.07;;;7.73;;
10275;SDS011;5183;51.190;6.820;2023-02-02T03:09:27;23.17;;;6.77;;
10275;SDS011;5183;51.190;6.820;2023-02-02T03:11:56;26.00;;;7.17;;
10275;SDS011;5183;51.190;6.820;2023-02-02T03:14:24;20.13;;;6.97;;
10275;SDS011;5183;51.190;6.820;2023-02-02T03:16:52;26.00;;;7.30;;
10275;SDS011;5183;51.190;6.820;2023-02-02T03:19:19;24.23;;;6.40;;
10275;SDS011;5183;51.190;6.820;2023-02-02T03:21:47;25.93;;;7.80;;
10275;SDS011;5183;51.190;6.820;2023-02-02T03:24:14;19.90;;;6.50;;
10275;SDS011;5183;51.190;6.820;2023-02-02T03:26:42;24.20;;;6.50;;
10275;SDS011;5183;51.190;6.820;2023-02-02T03:29:09;28.33;;;7.30;;
10275;SDS011;5183;51.190;6.820;2023-02-02T03:31:36;18.83;;;6.57;;
10275;SDS011;5183;51.190;6.820;2023-02-02T03:34:03;17.17;;;6.37;;
10275;SDS011;5183;51.190;6.820;2023-02-02T03:36:30;27.10;;;7.47;;
10275;SDS011;5183;51.190;6.820;2023-02-02T03:38:59;22.77;;;7.57;;
10275;SDS011;5183;51.190;6.820;2023-02-02T03:41:26;26.60;;;7.33;;
10275;SDS011;5183;51.190;6.820;2023-02-02T03:43:53;29.67;;;7.27;;
10275;SDS011;5183;51.190;6.820;2023-02-02T03:46:20;20.90;;;7.93;;
10275;SDS011;5183;51.190;6.820;2023-02-02T03:48:47;29.13;;;7.87;;
10275;SDS011;5183;51.190;6.820;2023-02-02T03:51:14;20.43;;;7.53;;
10275;SDS011;5183;51.190;6.820;2023-02-02T03:53:41;26.87;;;7.67;;
10275;SDS011;5183;51.190;6.820;2023-02-02T03:56:12;22.27;;;7.23;;
10275;SDS011;5183;51.190;6.820;2023-02-02T03:58:40;27.60;;;9.17;;
10275;SDS011;5183;51.190;6.820;2023-02-02T04:01:08;27.63;;;7.20;;
10275;SDS011;5183;51.190;6.820;2023-02-02T04:03:36;24.20;;;7.33;;
10275;SDS011;5183;51.190;6.820;2023-02-02T04:06:03;24.17;;;8.57;;
10275;SDS011;5183;51.190;6.820;2023-02-02T04:08:31;20.03;;;7.23;;
10275;SDS011;5183;51.190;6.820;2023-02-02T04:10:58;25.00;;;8.40;;
10275;SDS011;5183;51.190;6.820;2023-02-02T04:13:26;23.97;;;7.40;;
10275;SDS011;5183;51.190;6.820;2023-02-02T04:15:58;26.37;;;7.83;;
10275;SDS011;5183;51.190;6.820;2023-02-02T04:18:25;23.50;;;7.57;;
10275;SDS011;5183;51.190;6.820;2023-02-02T04:20:56;30.47;;;8.17;;
10275;SDS011;5183;51.190;6.820;2023-02-02T04:23:24;21.37;;;7.30;;
10275;SDS011;5183;51.190;6.820;2023-02-02T04:25:51;27.23;;;8.70;;
10275;SDS011;5183;51.190;6.820;2023-02-02T04:28:18;22.13;;;7.63;;
10275;SDS011;5183;51.190;6.820;2023-02-02T04:30:47;26.97;;;8.17;;
10275;SDS011;5183;51.190;6.820;2023-02-02T04:33:15;22.00;;;7.50;;
10275;SDS011;5183;51.190;6.820;2023-02-02T04:35:42;26.47;;;8.23;;
10275;SDS011;5183;51.190;6.820;2023-02-02T04:38:09;30.23;;;7.30;;
10275;SDS011;5183;51.190;6.820;2023-02-02T04:40:37;23.13;;;7.60;;
10275;SDS011;5183;51.190;6.820;2023-02-02T04:43:04;31.30;;;7.30;;
10275;SDS011;5183;51.190;6.820;2023-02-02T04:45:31;26.30;;;7.13;;
10275;SDS011;5183;51.190;6.820;2023-02-02T04:48:00;26.60;;;7.90;;
10275;SDS011;5183;51.190;6.820;2023-02-02T04:50:27;22.80;;;6.90;;
10275;SDS011;5183;51.190;6.820;2023-02-02T04:52:55;28.17;;;7.40;;
10275;SDS011;5183;51.190;6.820;2023-02-02T04:55:22;24.40;;;7.00;;
10275;SDS011;5183;51.190;6.820;2023-02-02T04:57:49;29.23;;;7.53;;
10275;SDS011;5183;51.190;6.820;2023-02-02T05:00:16;24.47;;;6.67;;
10275;SDS011;5183;51.190;6.820;2023-02-02T05:02:43;26.73;;;7.03;;
10275;SDS011;5183;51.190;6.820;2023-02-02T05:05:12;22.20;;;7.50;;
10275;SDS011;5183;51.190;6.820;2023-02-02T05:07:39;22.13;;;7.40;;
10275;SDS011;5183;51.190;6.820;2023-02-02T05:10:08;25.53;;;7.37;;
10275;SDS011;5183;51.190;6.820;2023-02-02T05:12:35;22.63;;;6.80;;
10275;SDS011;5183;51.190;6.820;2023-02-02T05:15:03;20.73;;;6.90;;
10275;SDS011;5183;51.190;6.820;2023-02-02T05:17:30;26.00;;;6.87;;
10275;SDS011;5183;51.190;6.820;2023-02-02T05:19:57;27.83;;;7.20;;
10275;SDS011;5183;51.190;6.820;2023-02-02T05:22:26;24.20;;;7.73;;
10275;SDS011;5183;51.190;6.820;2023-02-02T05:24:53;24.67;;;7.67;;
10275;SDS011;5183;51.190;6.820;2023-02-02T05:27:20;26.17;;;7.67;;
10275;SDS011;5183;51.190;6.820;2023-02-02T05:29:47;26.53;;;7.67;;
10275;SDS011;5183;51.190;6.820;2023-02-02T05:32:14;25.33;;;7.63;;
10275;SDS011;5183;51.190;6.820;2023-02-02T05:34:41;19.47;;;7.33;;
10275;SDS011;5183;51.190;6.820;2023-02-02T05:37:09;22.23;;;7.40;;
10275;SDS011;5183;51.190;6.820;2023-02-02T05:39:37;26.73;;;8.07;;
10275;SDS011;5183;51.190;6.820;2023-02-02T05:42:04;30.33;;;8.57;;
10275;SDS011;5183;51.190;6.820;2023-02-02T05:44:31;27.87;;;9.40;;
10275;SDS011;5183;51.190;6.820;2023-02-02T05:46:58;29.00;;;8.97;;
10275;SDS011;5183;51.190;6.820;2023-02-02T05:49:26;22.13;;;8.57;;
10275;SDS011;5183;51.190;6.820;2023-02-02T05:51:53;24.17;;;9.07;;
10275;SDS011;5183;51.190;6.820;2023-02-02T05:54:21;24.23;;;9.67;;
10275;SDS011;5183;51.190;6.820;2023-02-02T05:56:50;22.70;;;9.30;;
10275;SDS011;5183;51.190;6.820;2023-02-02T05:59:18;26.13;;;8.63;;
10275;SDS011;5183;51.190;6.820;2023-02-02T06:01:45;25.20;;;9.00;;
10275;SDS011;5183;51.190;6.820;2023-02-02T06:04:13;21.43;;;8.43;;
10275;SDS011;5183;51.190;6.820;2023-02-02T06:06:40;22.73;;;8.20;;
10275;SDS011;5183;51.190;6.820;2023-02-02T06:09:08;24.93;;;9.20;;
10275;SDS011;5183;51.190;6.820;2023-02-02T06:11:35;27.73;;;9.70;;
10275;SDS011;5183;51.190;6.820;2023-02-02T06:14:04;25.17;;;8.27;;
10275;SDS011;5183;51.190;6.820;2023-02-02T06:16:31;24.47;;;8.50;;
10275;SDS011;5183;51.190;6.820;2023-02-02T06:18:59;24.40;;;8.47;;
10275;SDS011;5183;51.190;6.820;2023-02-02T06:21:26;25.37;;;8.27;;
10275;SDS011;5183;51.190;6.820;2023-02-02T06:23:55;28.50;;;9.03;;
10275;SDS011;5183;51.190;6.820;2023-02-02T06:26:22;24.37;;;9.33;;
10275;SDS011;5183;51.190;6.820;2023-02-02T06:28:50;24.00;;;9.50;;
10275;SDS011;5183;51.190;6.820;2023-02-02T06:31:19;28.47;;;9.87;;
10275;SDS011;5183;51.190;6.820;2023-02-02T06:33:47;18.67;;;9.63;;
10275;SDS011;5183;51.190;6.820;2023-02-02T06:36:14;24.33;;;10.27;;
10275;SDS011;5183;51.190;6.820;2023-02-02T06:38:41;26.33;;;9.80;;
10275;SDS011;5183;51.190;6.820;2023-02-02T06:41:08;22.07;;;9.83;;
10275;SDS011;5183;51.190;6.820;2023-02-02T06:43:36;23.60;;;9.73;;
10275;SDS011;5183;51.190;6.820;2023-02-02T06:46:03;27.50;;;10.53;;
10275;SDS011;5183;51.190;6.820;2023-02-02T06:48:31;23.03;;;10.83;;
10275;SDS011;5183;51.190;6.820;2023-02-02T06:50:58;29.20;;;11.63;;
10275;SDS011;5183;51.190;6.820;2023-02-02T06:53:26;27.37;;;11.20;;
10275;SDS011;5183;51.190;6.820;2023-02-02T06:55:53;24.83;;;10.73;;
10275;SDS011;5183;51.190;6.820;2023-02-02T06:58:20;24.13;;;10.50;;
10275;SDS011;5183;51.190;6.820;2023-02-02T07:00:47;24.07;;;10.80;;
10275;SDS011;5183;51.190;6.820;2023-02-02T07:03:14;28.13;;;11.40;;
10275;SDS011;5183;51.190;6.820;2023-02-02T07:05:43;22.80;;;10.87;;
10275;SDS011;5183;51.190;6.820;2023-02-02T07:08:10;30.63;;;10.73;;
10275;SDS011;5183;51.190;6.820;2023-02-02T07:10:37;28.80;;;11.13;;
10275;SDS011;5183;51.190;6.820;2023-02-02T07:13:04;25.17;;;10.40;;
10275;SDS011;5183;51.190;6.820;2023-02-02T07:15:32;25.13;;;11.43;;
10275;SDS011;5183;51.190;6.820;2023-02-02T07:17:59;23.83;;;10.67;;
10275;SDS011;5183;51.190;6.820;2023-02-02T07:20:26;24.67;;;10.67;;
10275;SDS011;5183;51.190;6.820;2023-02-02T07:22:54;26.40;;;10.53;;
10275;SDS011;5183;51.190;6.820;2023-02-02T07:25:22;22.83;;;10.60;;
10275;SDS011;5183;51.190;6.820;2023-02-02T07:27:51;27.35;;;12.32;;
10275;SDS011;5183;51.190;6.820;2023-02-02T07:30:18;28.70;;;11.50;;
10275;SDS011;5183;51.190;6.820;2023-02-02T07:32:46;27.40;;;10.93;;
10275;SDS011;5183;51.190;6.820;2023-02-02T07:35:13;28.70;;;11.07;;
10275;SDS011;5183;51.190;6.820;2023-02-02T07:37:40;23.40;;;11.00;;
10275;SDS011;5183;51.190;6.820;2023-02-02T07:40:09;24.77;;;11.13;;
10275;SDS011;5183;51.190;6.820;2023-02-02T07:42:37;27.73;;;12.03;;
10275;SDS011;5183;51.190;6.820;2023-02-02T07:45:04;22.37;;;12.13;;
10275;SDS011;5183;51.190;6.820;2023-02-02T07:47:32;27.37;;;12.93;;
10275;SDS011;5183;51.190;6.820;2023-02-02T07:49:59;25.23;;;12.00;;
10275;SDS011;5183;51.190;6.820;2023-02-02T07:52:27;28.53;;;12.47;;
10275;SDS011;5183;51.190;6.820;2023-02-02T07:54:54;35.63;;;12.90;;
10275;SDS011;5183;51.190;6.820;2023-02-02T07:57:23;28.73;;;13.43;;
10275;SDS011;5183;51.190;6.820;2023-02-02T07:59:50;30.98;;;15.65;;
10275;SDS011;5183;51.190;6.820;2023-02-02T08:02:18;28.40;;;14.27;;
10275;SDS011;5183;51.190;6.820;2023-02-02T08:04:45;29.27;;;14.07;;
10275;SDS011;5183;51.190;6.820;2023-02-02T08:07:13;29.80;;;15.40;;
10275;SDS011;5183;51.190;6.820;2023-02-02T08:09:44;27.43;;;14.93;;
10275;SDS011;5183;51.190;6.820;2023-02-02T08:12:11;31.33;;;15.97;;
10275;SDS011;5183;51.190;6.820;2023-02-02T08:14:40;30.87;;;16.40;;
10275;SDS011;5183;51.190;6.820;2023-02-02T08:17:07;35.37;;;16.77;;
10275;SDS011;5183;51.190;6.820;2023-02-02T08:19:34;35.73;;;16.63;;
10275;SDS011;5183;51.190;6.820;2023-02-02T08:22:01;29.20;;;16.77;;
10275;SDS011;5183;51.190;6.820;2023-02-02T08:24:28;36.93;;;18.43;;
10275;SDS011;5183;51.190;6.820;2023-02-02T08:26:56;33.30;;;17.70;;
10275;SDS011;5183;51.190;6.820;2023-02-02T08:29:23;36.30;;;18.07;;
10275;SDS011;5183;51.190;6.820;2023-02-02T08:31:51;33.35;;;20.58;;
10275;SDS011;5183;51.190;6.820;2023-02-02T08:34:18;38.00;;;18.00;;
10275;SDS011;5183;51.190;6.820;2023-02-02T08:36:45;33.57;;;17.13;;
10275;SDS011;5183;51.190;6.820;2023-02-02T08:39:13;28.33;;;17.40;;
10275;SDS011;5183;51.190;6.820;2023-02-02T08:41:40;34.13;;;16.73;;
10275;SDS011;5183;51.190;6.820;2023-02-02T08:44:07;33.80;;;16.97;;
10275;SDS011;5183;51.190;6.820;2023-02-02T08:46:35;33.17;;;16.80;;
10275;SDS011;5183;51.190;6.820;2023-02-02T08:49:03;28.80;;;15.87;;
10275;SDS011;5183;51.190;6.820;2023-02-02T08:51:30;35.13;;;16.13;;
10275;SDS011;5183;51.190;6.820;2023-02-02T08:53:57;31.80;;;16.73;;
10275;SDS011;5183;51.190;6.820;2023-02-02T08:56:25;33.10;;;16.00;;
10275;SDS011;5183;51.190;6.820;2023-02-02T08:58:52;33.00;;;15.37;;
10275;SDS011;5183;51.190;6.820;2023-02-02T09:01:20;26.60;;;14.53;;
10275;SDS011;5183;51.190;6.820;2023-02-02T09:03:51;30.83;;;15.33;;
10275;SDS011;5183;51.190;6.820;2023-02-02T09:06:20;35.83;;;15.47;;
10275;SDS011;5183;51.190;6.820;2023-02-02T09:08:47;40.30;;;15.87;;
10275;SDS011;5183;51.190;6.820;2023-02-02T09:11:16;34.97;;;14.87;;
10275;SDS011;5183;51.190;6.820;2023-02-02T09:13:44;33.07;;;15.23;;
10275;SDS011;5183;51.190;6.820;2023-02-02T09:16:13;32.40;;;15.77;;
10275;SDS011;5183;51.190;6.820;2023-02-02T09:18:40;28.50;;;14.97;;
10275;SDS011;5183;51.190;6.820;2023-02-02T09:21:08;34.07;;;15.33;;
10275;SDS011;5183;51.190;6.820;2023-02-02T09:23:37;31.50;;;15.70;;
10275;SDS011;5183;51.190;6.820;2023-02-02T09:26:08;34.93;;;14.97;;
10275;SDS011;5183;51.190;6.820;2023-02-02T09:28:35;33.53;;;16.03;;
10275;SDS011;5183;51.190;6.820;2023-02-02T09:31:03;30.90;;;15.30;;
10275;SDS011;5183;51.190;6.820;2023-02-02T09:33:30;34.67;;;16.03;;
10275;SDS011;5183;51.190;6.820;2023-02-02T09:36:02;31.83;;;15.17;;
10275;SDS011;5183;51.190;6.820;2023-02-02T09:38:30;30.47;;;15.37;;
10275;SDS011;5183;51.190;6.820;2023-02-02T09:40:59;34.87;;;15.90;;
10275;SDS011;5183;51.190;6.820;2023-02-02T09:43:31;25.97;;;14.90;;
10275;SDS011;5183;51.190;6.820;2023-02-02T09:46:02;34.27;;;16.83;;
10275;SDS011;5183;51.190;6.820;2023-02-02T09:48:35;33.50;;;17.57;;
10275;SDS011;5183;51.190;6.820;2023-02-02T09:51:05;35.88;;;19.67;;
10275;SDS011;5183;51.190;6.820;2023-02-02T09:53:37;28.80;;;17.83;;
10275;SDS011;5183;51.190;6.820;2023-02-02T09:56:09;35.53;;;18.30;;
10275;SDS011;5183;51.190;6.820;2023-02-02T09:58:40;38.00;;;18.43;;
10275;SDS011;5183;51.190;6.820;2023-02-02T10:01:11;40.67;;;19.13;;
10275;SDS011;5183;51.190;6.820;2023-02-02T10:03:41;31.07;;;18.80;;
10275;SDS011;5183;51.190;6.820;2023-02-02T10:06:13;40.53;;;18.17;;
10275;SDS011;5183;51.190;6.820;2023-02-02T10:08:42;33.23;;;17.80;;
10275;SDS011;5183;51.190;6.820;2023-02-02T10:11:21;32.63;;;18.53;;
10275;SDS011;5183;51.190;6.820;2023-02-02T10:13:51;34.87;;;18.37;;
10275;SDS011;5183;51.190;6.820;2023-02-02T10:16:20;36.47;;;18.00;;
10275;SDS011;5183;51.190;6.820;2023-02-02T10:18:49;33.80;;;17.93;;
10275;SDS011;5183;51.190;6.820;2023-02-02T10:21:20;36.70;;;17.57;;
10275;SDS011;5183;51.190;6.820;2023-02-02T10:23:49;35.27;;;18.40;;
10275;SDS011;5183;51.190;6.820;2023-02-02T10:26:20;28.23;;;17.50;;
10275;SDS011;5183;51.190;6.820;2023-02-02T10:28:52;30.50;;;16.83;;
10275;SDS011;5183;51.190;6.820;2023-02-02T10:31:24;33.47;;;17.07;;
10275;SDS011;5183;51.190;6.820;2023-02-02T10:33:57;28.17;;;17.30;;
10275;SDS011;5183;51.190;6.820;2023-02-02T10:36:30;27.20;;;17.60;;
10275;SDS011;5183;51.190;6.820;2023-02-02T10:38:59;26.07;;;16.57;;
10275;SDS011;5183;51.190;6.820;2023-02-02T10:41:30;28.60;;;15.87;;
10275;SDS011;5183;51.190;6.820;2023-02-02T10:44:02;26.00;;;15.13;;
10275;SDS011;5183;51.190;6.820;2023-02-02T10:46:32;25.93;;;13.23;;
10275;SDS011;5183;51.190;6.820;2023-02-02T10:49:13;30.60;;;14.07;;
10275;SDS011;5183;51.190;6.820;2023-02-02T10:51:43;28.70;;;13.63;;
10275;SDS011;5183;51.190;6.820;2023-02-02T10:54:15;19.83;;;11.73;;
10275;SDS011;5183;51.190;6.820;2023-02-02T10:56:48;24.27;;;11.47;;
10275;SDS011;5183;51.190;6.820;2023-02-02T10:59:18;19.83;;;11.87;;
10275;SDS011;5183;51.190;6.820;2023-02-02T11:01:47;20.63;;;11.00;;
10275;SDS011;5183;51.190;6.820;2023-02-02T11:04:21;24.10;;;11.03;;
10275;SDS011;5183;51.190;6.820;2023-02-02T11:07:06;20.47;;;10.03;;
10275;SDS011;5183;51.190;6.820;2023-02-02T11:09:34;23.53;;;10.60;;
10275;SDS011;5183;51.190;6.820;2023-02-02T11:12:05;21.63;;;9.67;;
10275;SDS011;5183;51.190;6.820;2023-02-02T11:14:36;21.83;;;10.00;;
10275;SDS011;5183;51.190;6.820;2023-02-02T11:17:09;21.10;;;9.70;;
10275;SDS011;5183;51.190;6.820;2023-02-02T11:19:42;20.87;;;9.83;;
10275;SDS011;5183;51.190;6.820;2023-02-02T11:22:21;22.27;;;9.70;;
10275;SDS011;5183;51.190;6.820;2023-02-02T11:24:49;20.30;;;9.20;;
10275;SDS011;5183;51.190;6.820;2023-02-02T11:27:20;19.00;;;10.43;;
10275;SDS011;5183;51.190;6.820;2023-02-02T11:29:48;25.13;;;9.93;;
10275;SDS011;5183;51.190;6.820;2023-02-02T11:32:17;21.77;;;9.43;;
10275;SDS011;5183;51.190;6.820;2023-02-02T11:34:45;21.63;;;9.53;;
10275;SDS011;5183;51.190;6.820;2023-02-02T11:37:13;18.93;;;9.97;;
10275;SDS011;5183;51.190;6.820;2023-02-02T11:39:40;20.77;;;9.47;;
10275;SDS011;5183;51.190;6.820;2023-02-02T11:42:11;25.57;;;9.63;;
10275;SDS011;5183;51.190;6.820;2023-02-02T11:44:41;16.93;;;8.97;;
10275;SDS011;5183;51.190;6.820;2023-02-02T11:47:14;21.27;;;9.63;;
10275;SDS011;5183;51.190;6.820;2023-02-02T11:49:42;20.83;;;9.60;;
10275;SDS011;5183;51.190;6.820;2023-02-02T11:52:14;20.27;;;10.17;;
10275;SDS011;5183;51.190;6.820;2023-02-02T11:54:44;17.70;;;9.10;;
10275;SDS011;5183;51.190;6.820;2023-02-02T11:57:14;19.27;;;9.60;;
10275;SDS011;5183;51.190;6.820;2023-02-02T11:59:44;19.40;;;9.77;;
10275;SDS011;5183;51.190;6.820;2023-02-02T12:05:11;17.50;;;9.57;;
10275;SDS011;5183;51.190;6.820;2023-02-02T12:07:39;18.73;;;9.00;;
10275;SDS011;5183;51.190;6.820;2023-02-02T12:10:13;20.23;;;9.07;;
10275;SDS011;5183;51.190;6.820;2023-02-02T12:12:41;16.47;;;8.97;;
10275;SDS011;5183;51.190;6.820;2023-02-02T12:15:17;18.97;;;8.57;;
10275;SDS011;5183;51.190;6.820;2023-02-02T12:17:50;16.77;;;8.27;;
10275;SDS011;5183;51.190;6.820;2023-02-02T12:20:28;15.30;;;7.70;;
10275;SDS011;5183;51.190;6.820;2023-02-02T12:23:15;19.50;;;8.33;;
10275;SDS011;5183;51.190;6.820;2023-02-02T12:26:02;21.10;;;8.73;;
10275;SDS011;5183;51.190;6.820;2023-02-02T12:28:41;19.37;;;8.20;;
10275;SDS011;5183;51.190;6.820;2023-02-02T12:31:17;17.90;;;8.27;;
10275;SDS011;5183;51.190;6.820;2023-02-02T12:33:52;18.70;;;8.03;;
10275;SDS011;5183;51.190;6.820;2023-02-02T12:36:30;16.47;;;8.10;;
10275;SDS011;5183;51.190;6.820;2023-02-02T12:39:09;19.53;;;7.83;;
10275;SDS011;5183;51.190;6.820;2023-02-02T12:41:59;15.10;;;7.90;;
10275;SDS011;5183;51.190;6.820;2023-02-02T12:44:38;15.27;;;7.90;;
10275;SDS011;5183;51.190;6.820;2023-02-02T12:47:17;14.93;;;7.53;;
10275;SDS011;5183;51.190;6.820;2023-02-02T12:50:01;16.20;;;7.97;;
10275;SDS011;5183;51.190;6.820;2023-02-02T12:55:34;20.83;;;8.63;;
10275;SDS011;5183;51.190;6.820;2023-02-02T12:58:09;19.83;;;7.90;;
10275;SDS011;5183;51.190;6.820;2023-02-02T13:01:00;15.07;;;7.77;;
10275;SDS011;5183;51.190;6.820;2023-02-02T13:04:03;18.40;;;7.97;;
10275;SDS011;5183;51.190;6.820;2023-02-02T13:06:52;17.90;;;8.70;;
10275;SDS011;5183;51.190;6.820;2023-02-02T13:09:46;16.52;;;9.10;;
10275;SDS011;5183;51.190;6.820;2023-02-02T13:12:17;16.37;;;8.70;;
10275;SDS011;5183;51.190;6.820;2023-02-02T13:14:48;17.63;;;9.40;;
10275;SDS011;5183;51.190;6.820;2023-02-02T13:17:18;20.13;;;9.50;;
10275;SDS011;5183;51.190;6.820;2023-02-02T13:19:52;16.50;;;9.53;;
10275;SDS011;5183;51.190;6.820;2023-02-02T13:22:23;20.50;;;10.07;;
10275;SDS011;5183;51.190;6.820;2023-02-02T13:24:54;17.93;;;9.90;;
10275;SDS011;5183;51.190;6.820;2023-02-02T13:27:24;14.83;;;10.27;;
10275;SDS011;5183;51.190;6.820;2023-02-02T13:29:54;21.07;;;11.10;;
10275;SDS011;5183;51.190;6.820;2023-02-02T13:32:27;19.73;;;11.40;;
10275;SDS011;5183;51.190;6.820;2023-02-02T13:34:59;20.37;;;11.73;;
10275;SDS011;5183;51.190;6.820;2023-02-02T13:37:31;19.03;;;11.77;;
10275;SDS011;5183;51.190;6.820;2023-02-02T13:40:03;24.63;;;11.67;;
10275;SDS011;5183;51.190;6.820;2023-02-02T13:42:42;16.47;;;11.40;;
10275;SDS011;5183;51.190;6.820;2023-02-02T13:45:16;20.53;;;12.30;;
10275;SDS011;5183;51.190;6.820;2023-02-02T13:48:00;18.73;;;13.27;;
10275;SDS011;5183;51.190;6.820;2023-02-02T13:50:38;17.97;;;13.27;;
10275;SDS011;5183;51.190;6.820;2023-02-02T13:53:28;22.13;;;12.30;;
10275;SDS011;5183;51.190;6.820;2023-02-02T13:56:08;22.13;;;12.53;;
10275;SDS011;5183;51.190;6.820;2023-02-02T13:58:52;19.97;;;12.03;;
10275;SDS011;5183;51.190;6.820;2023-02-02T14:01:29;19.57;;;12.07;;
10275;SDS011;5183;51.190;6.820;2023-02-02T14:03:57;17.63;;;12.93;;
10275;SDS011;5183;51.190;6.820;2023-02-02T14:06:27;17.37;;;13.10;;
10275;SDS011;5183;51.190;6.820;2023-02-02T14:08:55;19.33;;;13.13;;
10275;SDS011;5183;51.190;6.820;2023-02-02T14:11:26;19.63;;;13.53;;
10275;SDS011;5183;51.190;6.820;2023-02-02T14:13:56;23.17;;;13.57;;
10275;SDS011;5183;51.190;6.820;2023-02-02T14:16:49;22.80;;;14.17;;
10275;SDS011;5183;51.190;6.820;2023-02-02T14:19:45;23.47;;;13.57;;
10275;SDS011;5183;51.190;6.820;2023-02-02T14:22:19;20.13;;;13.67;;
10275;SDS011;5183;51.190;6.820;2023-02-02T14:31:22;16.33;;;11.90;;
10275;SDS011;5183;51.190;6.820;2023-02-02T14:36:52;18.90;;;11.97;;
10275;SDS011;5183;51.190;6.820;2023-02-02T14:39:31;19.87;;;11.77;;
10275;SDS011;5183;51.190;6.820;2023-02-02T14:42:14;20.60;;;11.47;;
10275;SDS011;5183;51.190;6.820;2023-02-02T14:45:21;16.90;;;10.80;;
10275;SDS011;5183;51.190;6.820;2023-02-02T14:47:51;15.80;;;10.63;;
10275;SDS011;5183;51.190;6.820;2023-02-02T14:50:31;15.93;;;10.37;;
10275;SDS011;5183;51.190;6.820;2023-02-02T14:53:07;18.27;;;10.80;;
10275;SDS011;5183;51.190;6.820;2023-02-02T14:58:35;16.07;;;10.20;;
10275;SDS011;5183;51.190;6.820;2023-02-02T15:01:07;13.90;;;10.40;;
10275;SDS011;5183;51.190;6.820;2023-02-02T15:03:48;19.03;;;10.57;;
10275;SDS011;5183;51.190;6.820;2023-02-02T15:06:26;17.03;;;11.17;;
10275;SDS011;5183;51.190;6.820;2023-02-02T15:12:17;16.17;;;10.13;;
10275;SDS011;5183;51.190;6.820;2023-02-02T15:14:52;19.63;;;10.70;;
10275;SDS011;5183;51.190;6.820;2023-02-02T15:17:28;14.20;;;11.00;;
10275;SDS011;5183;51.190;6.820;2023-02-02T15:20:04;16.93;;;11.50;;
10275;SDS011;5183;51.190;6.820;2023-02-02T15:22:40;17.93;;;11.70;;
10275;SDS011;5183;51.190;6.820;2023-02-02T15:25:11;17.73;;;12.13;;